Time;durP1;ratioP1;P1;durP2;ratioP2;P2;SDS_P1;SDS_P2;PMS_P1;PMS_P2;Temp;Humidity;BMP_temperature;BMP_pressure;BME280_temperature;BME280_humidity;BME280_pressure;Samples;Min_cycle;Max_cycle;Signal;HPM_P1;HPM_P2
2020/12/06 00:02:16;;;;;;;21.60;15.37;;;9.70;62.80;;;;;;5005735;28;20229;-41
2020/12/06 00:04:42;;;;;;;18.47;14.90;;;9.70;62.60;;;;;;5009735;28;20611;-41
2020/12/06 00:07:07;;;;;;;19.53;15.43;;;9.70;62.60;;;;;;5007508;28;20523;-41
2020/12/06 00:09:33;;;;;;;21.10;16.30;;;9.70;62.60;;;;;;5010601;28;20220;-41
2020/12/06 00:11:59;;;;;;;18.93;14.33;;;9.70;62.50;;;;;;5011998;28;20265;-41
2020/12/06 00:14:25;;;;;;;19.20;15.33;;;9.70;62.80;;;;;;5007174;28;20202;-41
2020/12/06 00:16:50;;;;;;;18.73;15.63;;;9.70;62.80;;;;;;5009044;28;21006;-41
2020/12/06 00:19:16;;;;;;;20.00;16.13;;;9.70;62.60;;;;;;5008605;28;20198;-41
2020/12/06 00:21:44;;;;;;;19.63;15.77;;;9.80;62.50;;;;;;5008360;28;20565;-41
2020/12/06 00:24:09;;;;;;;21.00;15.10;;;9.80;62.40;;;;;;5011164;28;20205;-41
2020/12/06 00:26:35;;;;;;;21.30;17.17;;;9.80;62.30;;;;;;5005200;28;20445;-41
2020/12/06 00:29:00;;;;;;;22.23;16.13;;;9.80;62.20;;;;;;5005566;28;20235;-41
2020/12/06 00:31:26;;;;;;;22.30;16.70;;;9.80;62.30;;;;;;5007845;28;20202;-41
2020/12/06 00:33:52;;;;;;;21.97;15.87;;;9.80;62.40;;;;;;5007510;28;20309;-41
2020/12/06 00:36:17;;;;;;;23.90;17.00;;;9.80;62.50;;;;;;5006992;28;20690;-41
2020/12/06 00:38:44;;;;;;;20.73;15.60;;;9.80;62.80;;;;;;5010380;28;20194;-41
2020/12/06 00:41:11;;;;;;;20.70;16.30;;;9.80;62.80;;;;;;5010326;28;20256;-41
2020/12/06 00:43:37;;;;;;;22.13;15.63;;;9.70;62.90;;;;;;5007034;28;20526;-42
2020/12/06 00:46:02;;;;;;;21.13;15.70;;;9.80;63.00;;;;;;5007866;28;20453;-41
2020/12/06 00:48:28;;;;;;;25.00;17.47;;;9.80;62.90;;;;;;5004482;28;20226;-42
2020/12/06 00:50:53;;;;;;;18.33;16.07;;;9.70;63.00;;;;;;5005811;28;20213;-41
2020/12/06 00:53:19;;;;;;;21.87;17.30;;;9.80;62.90;;;;;;5008243;28;20236;-41
2020/12/06 00:55:44;;;;;;;20.43;16.10;;;9.80;62.70;;;;;;5010211;28;20193;-41
2020/12/06 00:58:10;;;;;;;22.53;16.70;;;9.80;62.70;;;;;;5009393;28;20705;-41
2020/12/06 01:00:36;;;;;;;22.50;17.40;;;9.80;62.80;;;;;;5001992;28;20186;-41
2020/12/06 01:03:01;;;;;;;21.70;16.50;;;9.70;62.30;;;;;;5004631;28;20212;-41
2020/12/06 01:05:27;;;;;;;20.17;15.77;;;9.80;62.70;;;;;;5008465;28;20186;-41
2020/12/06 01:07:52;;;;;;;20.10;16.27;;;9.80;62.90;;;;;;5002612;28;20280;-41
2020/12/06 01:10:18;;;;;;;21.97;16.60;;;9.70;62.70;;;;;;5005978;28;20201;-41
2020/12/06 01:12:43;;;;;;;21.20;15.53;;;9.80;62.80;;;;;;5004687;28;20279;-41
2020/12/06 01:15:10;;;;;;;21.23;15.63;;;9.80;62.70;;;;;;5009266;28;20260;-41
2020/12/06 01:17:37;;;;;;;24.60;17.30;;;9.80;62.60;;;;;;5003391;28;21641;-41
2020/12/06 01:20:07;;;;;;;22.60;17.70;;;9.80;62.40;;;;;;5007875;28;20868;-41
2020/12/06 01:22:33;;;;;;;23.50;17.13;;;9.80;62.40;;;;;;5007128;28;20848;-41
2020/12/06 01:24:59;;;;;;;24.00;17.57;;;9.90;62.30;;;;;;4995789;28;20459;-41
2020/12/06 01:27:24;;;;;;;21.00;16.83;;;9.80;62.10;;;;;;5006966;28;20890;-41
2020/12/06 01:29:50;;;;;;;28.77;17.87;;;9.80;61.90;;;;;;5003335;28;20261;-41
2020/12/06 01:32:16;;;;;;;24.80;17.27;;;9.80;61.90;;;;;;5004109;28;20223;-41
2020/12/06 01:34:41;;;;;;;23.70;17.33;;;9.80;61.70;;;;;;5010110;28;20190;-41
2020/12/06 01:37:07;;;;;;;23.10;16.50;;;9.80;61.70;;;;;;5007488;28;20190;-41
2020/12/06 01:39:32;;;;;;;18.90;15.33;;;9.80;61.70;;;;;;5009016;28;20221;-41
2020/12/06 01:41:58;;;;;;;23.70;18.20;;;9.80;61.70;;;;;;5006721;28;20201;-41
2020/12/06 01:44:26;;;;;;;25.80;18.80;;;9.80;61.50;;;;;;5008555;28;20251;-41
2020/12/06 01:46:53;;;;;;;26.10;18.60;;;9.80;61.60;;;;;;5004776;28;20622;-41
2020/12/06 01:49:24;;;;;;;26.00;18.67;;;9.70;61.60;;;;;;5004792;28;20440;-41
2020/12/06 01:51:57;;;;;;;29.87;19.47;;;9.60;62.30;;;;;;5002133;28;20520;-41
2020/12/06 01:54:23;;;;;;;26.37;17.63;;;9.70;62.30;;;;;;5008210;28;20453;-41
2020/12/06 01:56:49;;;;;;;26.90;17.50;;;9.70;62.10;;;;;;4998776;28;20454;-41
2020/12/06 01:59:14;;;;;;;26.60;18.00;;;9.60;62.50;;;;;;5006018;28;20276;-41
2020/12/06 02:01:51;;;;;;;32.33;18.07;;;9.50;62.80;;;;;;5004365;28;20277;-41
2020/12/06 02:04:16;;;;;;;23.10;17.77;;;9.50;63.00;;;;;;5007198;28;20982;-41
2020/12/06 02:06:43;;;;;;;23.70;17.63;;;9.60;62.70;;;;;;5008244;28;20453;-41
2020/12/06 02:09:09;;;;;;;22.60;16.60;;;9.60;62.70;;;;;;5005475;28;20244;-41
2020/12/06 02:11:36;;;;;;;26.70;19.43;;;9.70;62.50;;;;;;5008485;28;20870;-41
2020/12/06 02:14:02;;;;;;;25.93;17.90;;;9.70;62.30;;;;;;5008597;28;20205;-41
2020/12/06 02:16:28;;;;;;;24.83;17.50;;;9.70;62.20;;;;;;5005797;28;20957;-41
2020/12/06 02:18:53;;;;;;;25.77;17.93;;;9.70;62.00;;;;;;5009615;28;20464;-41
2020/12/06 02:21:19;;;;;;;22.33;17.20;;;9.70;61.90;;;;;;5004208;28;20571;-41
2020/12/06 02:23:44;;;;;;;22.30;16.90;;;9.70;62.00;;;;;;5006171;28;20194;-41
2020/12/06 02:26:10;;;;;;;23.90;17.23;;;9.70;62.10;;;;;;5003760;28;20201;-41
2020/12/06 02:28:36;;;;;;;24.27;17.00;;;9.70;61.90;;;;;;5002171;28;20196;-41
2020/12/06 02:31:01;;;;;;;23.73;16.77;;;9.70;61.80;;;;;;5006687;28;20248;-41
2020/12/06 02:33:27;;;;;;;24.80;17.90;;;9.80;61.70;;;;;;5004837;28;20589;-41
2020/12/06 02:35:52;;;;;;;20.63;15.90;;;9.70;61.60;;;;;;5006444;28;20304;-41
2020/12/06 02:38:18;;;;;;;21.73;16.70;;;9.70;61.60;;;;;;5008788;28;20198;-41
2020/12/06 02:40:43;;;;;;;28.00;17.67;;;9.60;61.20;;;;;;5011152;28;20193;-41
2020/12/06 02:43:09;;;;;;;22.43;15.37;;;9.70;61.40;;;;;;5010840;28;20197;-41
2020/12/06 02:45:34;;;;;;;23.13;16.90;;;9.60;61.50;;;;;;5008936;28;20212;-41
2020/12/06 02:48:00;;;;;;;19.20;15.77;;;9.60;61.20;;;;;;5012711;28;20209;-41
2020/12/06 02:50:26;;;;;;;20.63;16.00;;;9.60;61.00;;;;;;5004125;28;20202;-41
2020/12/06 02:52:57;;;;;;;20.17;15.00;;;9.50;60.80;;;;;;5009385;28;20648;-41
2020/12/06 02:55:26;;;;;;;20.63;15.17;;;9.50;61.10;;;;;;5010507;28;20436;-41
2020/12/06 02:57:52;;;;;;;24.03;17.40;;;9.40;61.00;;;;;;5009324;28;20475;-41
2020/12/06 03:00:18;;;;;;;26.37;17.33;;;9.30;61.20;;;;;;5010524;28;20451;-41
2020/12/06 03:02:43;;;;;;;22.83;15.60;;;9.30;61.30;;;;;;5010064;28;20441;-42
2020/12/06 03:05:09;;;;;;;24.67;16.93;;;9.30;61.70;;;;;;5011972;28;20754;-41
2020/12/06 03:07:35;;;;;;;26.93;17.87;;;9.30;61.90;;;;;;5008565;28;20236;-41
2020/12/06 03:10:06;;;;;;;26.07;18.03;;;9.30;61.90;;;;;;5008086;28;20206;-41
2020/12/06 03:12:32;;;;;;;27.60;18.60;;;9.30;62.20;;;;;;5010504;28;20485;-41
2020/12/06 03:14:57;;;;;;;25.40;16.77;;;9.30;62.00;;;;;;5006219;28;20453;-41
2020/12/06 03:17:23;;;;;;;25.60;17.73;;;9.40;61.80;;;;;;5012322;28;20448;-41
2020/12/06 03:19:48;;;;;;;26.17;17.00;;;9.30;62.00;;;;;;5011427;28;20252;-41
2020/12/06 03:22:14;;;;;;;26.53;17.77;;;9.30;62.60;;;;;;5008918;28;20201;-41
2020/12/06 03:24:39;;;;;;;32.03;19.50;;;9.30;62.60;;;;;;5005344;28;20284;-41
2020/12/06 03:27:05;;;;;;;26.83;19.07;;;9.30;62.70;;;;;;5010218;28;20237;-41
2020/12/06 03:29:30;;;;;;;28.53;18.33;;;9.20;63.20;;;;;;4999074;28;20198;-41
2020/12/06 03:31:56;;;;;;;27.07;18.23;;;9.20;63.40;;;;;;5008928;28;20214;-41
2020/12/06 03:34:21;;;;;;;30.63;19.10;;;9.20;63.30;;;;;;5008805;28;20280;-41
2020/12/06 03:36:47;;;;;;;30.50;20.10;;;9.20;63.30;;;;;;5008178;28;20237;-41
2020/12/06 03:39:15;;;;;;;33.03;18.27;;;9.30;63.10;;;;;;5010242;28;20272;-41
2020/12/06 03:41:44;;;;;;;30.40;19.47;;;9.10;63.20;;;;;;5007020;28;20206;-41
2020/12/06 03:44:09;;;;;;;29.00;19.00;;;9.20;63.30;;;;;;5011018;28;20480;-41
2020/12/06 03:46:35;;;;;;;28.60;19.30;;;9.30;63.20;;;;;;5010811;28;20522;-41
2020/12/06 03:49:00;;;;;;;30.80;20.07;;;9.30;63.20;;;;;;5013114;28;20229;-41
2020/12/06 03:51:26;;;;;;;35.87;18.93;;;9.30;63.20;;;;;;5007646;28;20206;-41
2020/12/06 03:53:51;;;;;;;31.50;20.33;;;9.20;63.20;;;;;;5010260;28;20209;-41
2020/12/06 03:56:17;;;;;;;32.50;20.60;;;9.30;63.30;;;;;;5009555;28;20193;-41
2020/12/06 03:58:42;;;;;;;27.63;18.80;;;9.20;62.60;;;;;;5007397;28;20297;-41
2020/12/06 04:01:08;;;;;;;33.10;18.57;;;9.20;62.90;;;;;;5013565;28;20201;-41
2020/12/06 04:03:34;;;;;;;28.10;18.50;;;9.10;63.00;;;;;;5008331;28;20194;-42
2020/12/06 04:05:59;;;;;;;31.13;19.20;;;9.00;63.20;;;;;;5010227;28;20644;-41
2020/12/06 04:08:25;;;;;;;29.80;19.17;;;9.00;63.80;;;;;;5008290;28;20194;-41
2020/12/06 04:10:50;;;;;;;35.03;19.60;;;9.00;63.80;;;;;;5005388;28;20198;-41
2020/12/06 04:13:16;;;;;;;28.87;18.20;;;9.10;63.30;;;;;;5003264;28;20232;-41
2020/12/06 04:15:41;;;;;;;33.53;20.27;;;9.10;62.90;;;;;;5012425;28;20578;-41
2020/12/06 04:18:07;;;;;;;32.30;20.80;;;9.10;62.80;;;;;;5009995;28;20206;-41
2020/12/06 04:20:32;;;;;;;28.80;19.80;;;9.20;62.80;;;;;;5008386;28;20248;-42
2020/12/06 04:22:58;;;;;;;29.83;19.20;;;9.20;62.70;;;;;;5010577;28;20194;-41
2020/12/06 04:25:24;;;;;;;29.10;19.57;;;9.20;62.50;;;;;;5009422;28;20271;-41
2020/12/06 04:27:49;;;;;;;30.97;20.73;;;9.30;62.40;;;;;;5000800;28;20611;-41
2020/12/06 04:30:15;;;;;;;32.13;18.07;;;9.20;62.60;;;;;;5003605;28;20217;-41
2020/12/06 04:32:40;;;;;;;28.77;18.30;;;9.10;62.80;;;;;;5009010;28;20287;-41
2020/12/06 04:35:06;;;;;;;37.33;23.60;;;9.10;62.90;;;;;;5009403;28;20660;-41
2020/12/06 04:37:32;;;;;;;33.97;21.03;;;9.20;63.00;;;;;;5008857;28;20260;-41
2020/12/06 04:39:57;;;;;;;31.90;19.53;;;9.20;62.60;;;;;;5010088;28;20202;-41
2020/12/06 04:42:24;;;;;;;32.73;20.00;;;9.30;62.40;;;;;;5001085;28;20198;-41
2020/12/06 04:44:50;;;;;;;33.40;19.23;;;9.40;62.10;;;;;;5010571;28;20234;-41
2020/12/06 04:47:22;;;;;;;36.17;21.27;;;9.40;61.60;;;;;;5008309;28;20440;-41
2020/12/06 04:49:59;;;;;;;35.20;19.67;;;9.40;61.40;;;;;;5009589;28;20190;-41
2020/12/06 04:52:28;;;;;;;32.37;20.63;;;9.40;61.50;;;;;;5005210;28;20487;-41
2020/12/06 04:55:02;;;;;;;32.17;20.20;;;9.40;61.80;;;;;;5007058;28;20860;-41
2020/12/06 04:57:29;;;;;;;32.93;21.33;;;9.40;61.90;;;;;;5007699;28;20826;-41
2020/12/06 05:00:04;;;;;;;36.70;21.20;;;9.40;62.10;;;;;;5009858;28;20952;-41
2020/12/06 05:02:32;;;;;;;37.60;20.43;;;9.30;62.30;;;;;;5007842;28;20483;-41
2020/12/06 05:05:02;;;;;;;32.53;20.20;;;9.10;62.40;;;;;;5008231;28;20990;-41
2020/12/06 05:07:30;;;;;;;32.63;20.03;;;9.10;63.00;;;;;;5007850;28;20496;-41
2020/12/06 05:09:56;;;;;;;34.80;20.23;;;9.10;63.20;;;;;;5008842;28;20441;-41
2020/12/06 05:12:22;;;;;;;33.67;20.63;;;9.10;62.70;;;;;;4998078;28;20478;-41
2020/12/06 05:14:48;;;;;;;36.90;20.53;;;9.20;62.50;;;;;;5001153;28;20456;-41
2020/12/06 05:17:14;;;;;;;32.40;21.17;;;9.00;62.50;;;;;;5001818;28;20187;-41
2020/12/06 05:19:40;;;;;;;37.23;23.77;;;8.90;63.10;;;;;;5007930;28;20816;-41
2020/12/06 05:22:07;;;;;;;34.43;20.17;;;9.00;62.80;;;;;;4996018;28;20450;-41
2020/12/06 05:24:34;;;;;;;35.80;21.60;;;9.20;62.40;;;;;;5003904;28;20669;-41
2020/12/06 05:27:00;;;;;;;33.73;22.03;;;9.20;62.20;;;;;;5010570;28;20480;-41
2020/12/06 05:29:26;;;;;;;33.87;18.83;;;9.20;62.10;;;;;;5003665;28;20491;-41
2020/12/06 05:31:58;;;;;;;33.67;19.80;;;9.20;62.20;;;;;;5006607;28;20579;-41
2020/12/06 05:34:23;;;;;;;55.33;38.17;;;9.20;62.00;;;;;;4995311;28;20450;-41
2020/12/06 05:36:49;;;;;;;51.50;36.00;;;9.10;62.20;;;;;;5006706;28;20452;-41
2020/12/06 05:39:15;;;;;;;38.60;24.53;;;9.10;62.00;;;;;;5007884;28;20190;-41
2020/12/06 05:41:47;;;;;;;39.03;21.37;;;9.20;62.10;;;;;;5008125;28;20217;-41
2020/12/06 05:44:12;;;;;;;35.90;21.10;;;9.20;61.80;;;;;;5008515;28;20234;-41
2020/12/06 05:46:38;;;;;;;35.93;21.23;;;9.10;61.70;;;;;;5009101;28;20511;-42
2020/12/06 05:49:05;;;;;;;35.40;20.57;;;9.10;61.90;;;;;;5005548;28;20193;-41
2020/12/06 05:51:31;;;;;;;33.57;20.50;;;9.10;61.70;;;;;;5008322;28;20197;-41
2020/12/06 05:53:58;;;;;;;34.93;19.07;;;9.20;61.60;;;;;;5010316;28;20479;-41
2020/12/06 05:56:24;;;;;;;31.50;19.53;;;9.20;61.40;;;;;;5007611;28;20223;-41
2020/12/06 05:58:52;;;;;;;34.03;21.00;;;9.20;61.40;;;;;;4993913;28;20454;-41
2020/12/06 06:01:19;;;;;;;36.60;19.50;;;9.20;61.30;;;;;;5002846;28;20441;-41
2020/12/06 06:03:52;;;;;;;32.13;19.67;;;9.20;61.30;;;;;;5002224;28;20477;-41
2020/12/06 06:06:25;;;;;;;36.50;20.17;;;9.10;61.40;;;;;;5004184;28;20548;-41
2020/12/06 06:08:53;;;;;;;31.47;19.97;;;9.20;61.60;;;;;;5007987;28;20436;-41
2020/12/06 06:11:23;;;;;;;35.93;20.20;;;9.20;61.50;;;;;;5007578;28;20917;-41
2020/12/06 06:13:55;;;;;;;36.87;21.10;;;9.20;61.50;;;;;;5010126;28;20464;-41
2020/12/06 06:16:21;;;;;;;35.47;19.43;;;9.30;61.40;;;;;;5013963;28;20856;-41
2020/12/06 06:18:49;;;;;;;32.17;20.00;;;9.20;61.40;;;;;;5005722;28;20445;-41
2020/12/06 06:21:17;;;;;;;32.97;19.77;;;9.20;61.30;;;;;;5010923;28;20448;-41
2020/12/06 06:23:44;;;;;;;36.70;21.33;;;9.20;61.40;;;;;;5016412;28;20480;-41
2020/12/06 06:26:11;;;;;;;39.97;21.57;;;9.20;61.40;;;;;;5012681;28;20433;-41
2020/12/06 06:28:37;;;;;;;38.53;19.10;;;9.30;61.40;;;;;;5008835;28;20548;-42
2020/12/06 06:31:04;;;;;;;30.70;19.00;;;9.40;62.20;;;;;;5011399;28;20954;-41
2020/12/06 06:33:33;;;;;;;38.10;21.37;;;9.70;63.10;;;;;;5011841;28;20876;-42
2020/12/06 06:36:00;;;;;;;38.30;20.70;;;10.00;61.70;;;;;;5013538;28;20842;-42
2020/12/06 06:38:26;;;;;;;37.77;21.60;;;10.30;60.50;;;;;;5008779;28;20987;-41
2020/12/06 06:40:54;;;;;;;35.63;19.77;;;10.50;59.70;;;;;;5006901;28;20552;-42
2020/12/06 06:43:19;;;;;;;29.70;17.57;;;10.70;58.70;;;;;;5012053;28;20233;-41
2020/12/06 06:45:45;;;;;;;31.20;20.03;;;10.80;58.00;;;;;;5011251;28;20435;-42
2020/12/06 06:48:16;;;;;;;32.90;21.33;;;10.90;58.10;;;;;;5014139;28;20197;-41
2020/12/06 06:50:42;;;;;;;29.83;18.93;;;11.10;57.90;;;;;;5003080;28;20563;-42
2020/12/06 06:53:08;;;;;;;30.77;19.53;;;11.20;57.40;;;;;;5012588;28;20480;-42
2020/12/06 06:55:54;;;;;;;32.93;20.63;;;11.30;56.20;;;;;;5012874;28;20512;-42
2020/12/06 06:58:24;;;;;;;32.60;20.20;;;11.40;55.70;;;;;;5009617;28;20460;-42
2020/12/06 07:00:50;;;;;;;34.77;21.13;;;11.40;55.40;;;;;;5017153;28;20472;-41
2020/12/06 07:03:21;;;;;;;32.90;20.50;;;11.40;55.10;;;;;;5006961;28;20830;-42
2020/12/06 07:05:46;;;;;;;32.03;19.63;;;11.30;55.20;;;;;;5008383;28;20190;-42
2020/12/06 07:08:15;;;;;;;29.43;18.80;;;11.30;55.20;;;;;;5014547;28;20510;-41
2020/12/06 07:10:41;;;;;;;33.07;19.83;;;11.30;55.50;;;;;;5015224;28;20221;-42
2020/12/06 07:13:08;;;;;;;33.73;20.40;;;11.30;55.60;;;;;;5012537;28;20980;-41
2020/12/06 07:15:34;;;;;;;34.10;20.80;;;11.40;55.20;;;;;;5015715;28;20470;-41
2020/12/06 07:18:01;;;;;;;36.33;20.70;;;11.30;54.80;;;;;;5013590;28;20432;-41
2020/12/06 07:20:27;;;;;;;33.90;20.40;;;11.10;54.80;;;;;;5016518;28;20425;-42
2020/12/06 07:22:54;;;;;;;35.63;19.80;;;10.90;55.30;;;;;;5011099;28;20528;-41
2020/12/06 07:25:21;;;;;;;33.93;21.17;;;10.80;55.60;;;;;;5012750;28;20975;-41
2020/12/06 07:27:47;;;;;;;35.70;20.33;;;10.70;55.80;;;;;;5006180;28;20456;-41
2020/12/06 07:30:15;;;;;;;38.10;22.07;;;10.60;56.10;;;;;;5010601;28;20441;-41
2020/12/06 07:32:41;;;;;;;32.97;21.47;;;10.50;56.30;;;;;;4998640;28;20575;-41
2020/12/06 07:35:10;;;;;;;37.07;20.00;;;10.40;56.50;;;;;;5012481;28;20524;-41
2020/12/06 07:37:36;;;;;;;34.90;21.43;;;10.30;56.70;;;;;;5006056;28;20197;-42
2020/12/06 07:40:10;;;;;;;37.07;22.43;;;10.30;56.90;;;;;;5010243;28;20483;-42
2020/12/06 07:42:36;;;;;;;38.27;21.80;;;10.20;57.40;;;;;;5006420;28;20266;-41
2020/12/06 07:45:04;;;;;;;37.87;20.77;;;10.10;57.90;;;;;;5009102;28;20480;-42
2020/12/06 07:47:30;;;;;;;39.30;22.23;;;10.10;58.10;;;;;;5009883;28;20437;-41
2020/12/06 07:49:58;;;;;;;38.10;21.90;;;10.10;58.20;;;;;;5011012;28;20843;-41
2020/12/06 07:52:34;;;;;;;37.30;21.53;;;10.00;58.10;;;;;;5006802;28;20261;-41
2020/12/06 07:55:02;;;;;;;33.43;20.00;;;10.00;58.10;;;;;;5008826;28;20882;-41
2020/12/06 07:57:34;;;;;;;41.80;22.80;;;10.00;58.30;;;;;;5010494;28;20438;-41
2020/12/06 08:00:00;;;;;;;40.80;22.57;;;10.00;58.40;;;;;;5012668;28;20446;-41
2020/12/06 08:02:31;;;;;;;39.90;21.63;;;9.90;59.20;;;;;;5007696;28;20455;-41
2020/12/06 08:04:58;;;;;;;36.23;20.57;;;9.90;59.40;;;;;;4999420;28;20425;-41
2020/12/06 08:07:34;;;;;;;42.27;22.27;;;9.90;59.50;;;;;;5008341;28;20468;-41
2020/12/06 08:10:03;;;;;;;40.73;22.83;;;9.90;59.60;;;;;;4995071;28;20528;-41
2020/12/06 08:12:32;;;;;;;43.17;23.37;;;9.90;59.50;;;;;;5003831;28;20999;-41
2020/12/06 08:15:03;;;;;;;40.10;22.47;;;9.90;59.60;;;;;;4998849;28;20436;-41
2020/12/06 08:17:42;;;;;;;41.93;21.40;;;9.90;59.70;;;;;;5004422;28;20434;-42
2020/12/06 08:20:12;;;;;;;40.73;21.40;;;9.90;59.70;;;;;;5001951;28;20444;-41
2020/12/06 08:22:58;;;;;;;45.53;22.57;;;9.80;59.50;;;;;;5004624;28;20448;-41
2020/12/06 08:25:26;;;;;;;46.83;22.50;;;9.80;60.00;;;;;;5005890;28;20475;-41
2020/12/06 08:27:53;;;;;;;38.43;23.03;;;9.80;60.10;;;;;;5004803;28;20520;-41
2020/12/06 08:30:21;;;;;;;45.83;21.87;;;9.80;60.50;;;;;;5004112;28;20436;-42
2020/12/06 08:32:59;;;;;;;31.73;20.37;;;9.80;60.70;;;;;;5010475;28;20515;-42
2020/12/06 08:35:41;;;;;;;39.37;20.97;;;9.80;60.80;;;;;;5009832;28;21841;-42
2020/12/06 08:38:13;;;;;;;39.20;21.00;;;9.80;60.70;;;;;;5003839;28;20503;-42
2020/12/06 08:40:38;;;;;;;41.30;21.63;;;9.80;60.90;;;;;;5009196;28;20463;-42
2020/12/06 08:43:04;;;;;;;46.43;23.07;;;9.80;61.00;;;;;;5002004;28;20996;-42
2020/12/06 08:45:30;;;;;;;43.53;22.87;;;9.80;60.90;;;;;;4998987;28;20194;-42
2020/12/06 08:47:55;;;;;;;47.63;22.70;;;9.80;60.90;;;;;;5012351;28;20190;-42
2020/12/06 08:50:21;;;;;;;42.30;22.27;;;9.80;60.90;;;;;;5007463;28;20194;-43
2020/12/06 08:52:55;;;;;;;44.83;21.83;;;9.80;60.90;;;;;;5011295;28;20261;-42
2020/12/06 08:55:29;;;;;;;45.30;23.40;;;9.80;60.90;;;;;;5012052;28;20204;-42
2020/12/06 08:57:55;;;;;;;42.63;22.83;;;9.90;61.20;;;;;;5011613;28;20433;-42
2020/12/06 09:00:21;;;;;;;42.17;20.30;;;9.80;61.10;;;;;;5009620;28;20509;-42
2020/12/06 09:02:47;;;;;;;40.40;20.87;;;9.90;61.10;;;;;;4994763;28;20521;-42
2020/12/06 09:05:12;;;;;;;48.87;24.50;;;9.80;61.30;;;;;;4992196;28;20207;-42
2020/12/06 09:07:42;;;;;;;45.90;24.70;;;9.90;61.60;;;;;;4994311;28;20202;-42
2020/12/06 09:10:08;;;;;;;50.87;22.37;;;9.90;61.60;;;;;;4998893;28;20305;-42
2020/12/06 09:12:36;;;;;;;46.10;22.70;;;9.90;61.40;;;;;;4997862;28;20508;-42
2020/12/06 09:15:06;;;;;;;46.77;22.13;;;9.90;61.30;;;;;;4996348;28;20464;-42
2020/12/06 09:17:33;;;;;;;48.23;24.03;;;9.90;61.40;;;;;;5010242;28;20437;-42
2020/12/06 09:19:59;;;;;;;49.93;23.93;;;9.90;61.60;;;;;;4995123;28;20425;-42
2020/12/06 09:22:24;;;;;;;50.43;22.17;;;10.00;60.40;;;;;;4996954;28;20492;-42
2020/12/06 09:24:50;;;;;;;49.30;23.57;;;10.00;60.30;;;;;;4993237;28;20194;-42
2020/12/06 09:27:15;;;;;;;42.17;23.10;;;9.90;61.30;;;;;;4997255;28;20230;-42
2020/12/06 09:29:41;;;;;;;49.87;24.90;;;9.80;61.50;;;;;;4999328;28;20190;-42
2020/12/06 09:32:07;;;;;;;48.80;21.10;;;9.80;62.70;;;;;;5009572;28;20221;-42
2020/12/06 09:34:33;;;;;;;44.07;21.80;;;9.90;62.90;;;;;;5004286;28;20638;-42
2020/12/06 09:36:58;;;;;;;48.90;22.50;;;9.90;62.20;;;;;;4991135;28;20199;-42
2020/12/06 09:39:25;;;;;;;51.03;23.23;;;9.90;62.00;;;;;;5004557;28;20574;-42
2020/12/06 09:41:50;;;;;;;46.17;21.83;;;9.90;62.00;;;;;;5010935;28;20205;-42
2020/12/06 09:44:17;;;;;;;38.80;20.87;;;9.90;62.10;;;;;;5009470;28;20472;-42
2020/12/06 09:46:42;;;;;;;45.00;22.33;;;9.90;62.30;;;;;;5008935;28;20198;-42
2020/12/06 09:49:08;;;;;;;41.53;20.90;;;10.00;61.40;;;;;;5002924;28;20471;-42
2020/12/06 09:51:34;;;;;;;47.60;22.43;;;10.00;61.30;;;;;;5008473;28;20315;-42
2020/12/06 09:54:00;;;;;;;44.43;21.20;;;10.10;61.10;;;;;;5010336;28;20669;-42
2020/12/06 09:56:29;;;;;;;48.87;20.17;;;10.10;61.00;;;;;;5008210;28;20197;-42
2020/12/06 09:58:56;;;;;;;44.20;19.77;;;10.10;60.90;;;;;;5004628;28;20444;-42
2020/12/06 10:01:24;;;;;;;36.93;20.33;;;10.10;60.70;;;;;;5005072;28;20452;-42
2020/12/06 10:03:49;;;;;;;40.40;20.93;;;10.10;60.70;;;;;;5008105;28;20563;-42
2020/12/06 10:06:20;;;;;;;37.53;19.97;;;10.10;60.60;;;;;;5003149;28;20523;-43
2020/12/06 10:08:46;;;;;;;36.90;18.67;;;10.10;60.80;;;;;;5001823;28;20285;-42
2020/12/06 10:11:12;;;;;;;38.40;19.90;;;10.10;61.00;;;;;;4999759;28;20520;-42
2020/12/06 10:13:37;;;;;;;38.07;19.63;;;10.10;61.20;;;;;;5005998;28;20229;-42
2020/12/06 10:16:03;;;;;;;37.37;19.67;;;10.10;61.30;;;;;;5002209;28;20626;-42
2020/12/06 10:18:28;;;;;;;33.97;18.97;;;10.10;61.10;;;;;;5008454;28;20198;-42
2020/12/06 10:20:54;;;;;;;39.50;19.00;;;10.10;61.40;;;;;;5003074;28;20205;-42
2020/12/06 10:23:19;;;;;;;35.37;19.07;;;10.10;61.10;;;;;;5008370;28;20247;-42
2020/12/06 10:25:45;;;;;;;43.60;19.30;;;10.10;60.90;;;;;;5003558;28;20197;-42
2020/12/06 10:28:10;;;;;;;36.17;19.00;;;10.20;61.20;;;;;;5005005;28;20247;-42
2020/12/06 10:30:36;;;;;;;34.67;19.57;;;10.20;61.20;;;;;;5003330;28;20209;-43
2020/12/06 10:33:01;;;;;;;37.73;18.70;;;10.20;61.30;;;;;;5008781;28;20225;-42
2020/12/06 10:35:27;;;;;;;32.80;18.47;;;10.20;61.40;;;;;;5009084;28;20669;-42
2020/12/06 10:37:53;;;;;;;33.77;18.93;;;10.20;61.30;;;;;;5001721;28;20288;-41
2020/12/06 10:40:18;;;;;;;35.70;19.20;;;10.30;61.30;;;;;;5006475;28;20194;-41
2020/12/06 10:42:46;;;;;;;38.20;19.87;;;10.30;61.10;;;;;;5009184;28;20546;-41
2020/12/06 10:45:11;;;;;;;39.83;18.53;;;10.20;61.10;;;;;;5002775;28;20257;-41
2020/12/06 10:47:37;;;;;;;41.10;19.40;;;10.10;60.90;;;;;;5004706;28;20534;-41
2020/12/06 10:50:02;;;;;;;38.20;20.33;;;10.20;61.00;;;;;;5007048;28;20194;-41
2020/12/06 10:52:28;;;;;;;38.20;18.53;;;10.20;61.10;;;;;;4999011;28;20262;-41
2020/12/06 10:54:55;;;;;;;37.43;18.93;;;10.20;61.20;;;;;;5008439;28;20213;-41
2020/12/06 10:57:20;;;;;;;34.33;16.87;;;10.20;61.40;;;;;;5004137;28;20198;-41
2020/12/06 10:59:46;;;;;;;32.40;18.00;;;10.30;62.30;;;;;;5009061;28;20443;-41
2020/12/06 11:02:11;;;;;;;34.47;18.93;;;10.30;61.80;;;;;;5006177;28;20194;-41
2020/12/06 11:04:37;;;;;;;36.10;16.57;;;10.30;61.80;;;;;;5011810;28;20261;-41
2020/12/06 11:07:03;;;;;;;26.10;15.80;;;10.40;61.90;;;;;;5011982;28;20201;-42
2020/12/06 11:09:29;;;;;;;27.60;15.70;;;10.40;61.90;;;;;;5012655;28;20260;-41
2020/12/06 11:11:55;;;;;;;30.13;14.73;;;10.30;62.10;;;;;;5012569;28;20839;-41
2020/12/06 11:14:20;;;;;;;22.70;13.37;;;10.40;62.40;;;;;;5010281;28;20193;-42
2020/12/06 11:16:50;;;;;;;23.93;14.33;;;10.40;62.20;;;;;;5013568;28;20193;-41
2020/12/06 11:19:16;;;;;;;25.00;13.30;;;10.40;62.30;;;;;;5017684;28;20633;-41
2020/12/06 11:21:42;;;;;;;21.60;11.97;;;10.40;62.20;;;;;;5015100;28;20465;-41
2020/12/06 11:24:07;;;;;;;21.93;13.40;;;10.40;62.10;;;;;;5011515;28;20436;-41
2020/12/06 11:26:33;;;;;;;19.70;12.50;;;10.30;62.10;;;;;;5007619;28;20190;-41
2020/12/06 11:28:59;;;;;;;21.03;13.30;;;10.20;62.40;;;;;;5010120;28;20190;-41
2020/12/06 11:31:25;;;;;;;23.70;12.53;;;10.20;62.60;;;;;;5003919;28;20443;-41
2020/12/06 11:33:50;;;;;;;23.80;11.87;;;10.30;62.30;;;;;;5009988;28;20631;-41
2020/12/06 11:36:16;;;;;;;32.30;18.17;;;10.40;62.20;;;;;;5012276;28;20218;-41
2020/12/06 11:38:42;;;;;;;24.83;13.73;;;10.40;62.10;;;;;;5010784;28;20684;-41
2020/12/06 11:41:08;;;;;;;22.20;13.30;;;10.40;62.20;;;;;;5001315;28;20186;-41
2020/12/06 11:43:34;;;;;;;20.10;12.63;;;10.40;61.80;;;;;;5008982;28;20491;-41
2020/12/06 11:45:59;;;;;;;22.73;12.33;;;10.40;61.40;;;;;;5010086;28;20198;-41
2020/12/06 11:48:25;;;;;;;23.80;13.23;;;10.50;61.30;;;;;;5009042;28;20189;-41
2020/12/06 11:50:51;;;;;;;21.57;11.80;;;10.50;61.40;;;;;;5007181;28;20198;-41
2020/12/06 11:53:16;;;;;;;20.97;12.50;;;10.50;61.60;;;;;;5004350;28;20305;-41
2020/12/06 11:55:42;;;;;;;23.87;13.50;;;10.50;61.80;;;;;;5004443;28;20205;-41
2020/12/06 11:58:07;;;;;;;23.33;13.10;;;10.50;61.90;;;;;;5008901;28;20194;-41
2020/12/06 12:00:33;;;;;;;24.33;16.40;;;10.60;62.00;;;;;;5013888;28;21025;-41
2020/12/06 12:02:59;;;;;;;22.37;15.37;;;10.60;62.00;;;;;;5013081;28;20237;-41
2020/12/06 12:05:24;;;;;;;23.87;15.03;;;10.60;61.80;;;;;;5004145;28;20203;-41
2020/12/06 12:07:50;;;;;;;20.00;13.50;;;10.50;61.90;;;;;;5008346;28;20194;-41
2020/12/06 12:10:16;;;;;;;24.53;14.97;;;10.60;62.20;;;;;;5008241;28;20278;-40
2020/12/06 12:12:42;;;;;;;25.87;17.07;;;10.60;62.00;;;;;;4999733;28;20230;-41
2020/12/06 12:15:09;;;;;;;24.07;15.83;;;10.60;61.80;;;;;;4999825;28;21257;-41
2020/12/06 12:17:34;;;;;;;25.17;15.23;;;10.60;61.80;;;;;;5010040;28;20532;-41
2020/12/06 12:20:01;;;;;;;26.33;16.20;;;10.60;62.00;;;;;;5004246;28;20871;-41
2020/12/06 12:22:27;;;;;;;22.80;14.43;;;10.60;61.90;;;;;;5010474;28;20221;-41
2020/12/06 12:24:53;;;;;;;22.73;14.00;;;10.60;62.30;;;;;;5012312;28;20516;-41
2020/12/06 12:27:18;;;;;;;21.77;14.07;;;10.60;62.50;;;;;;5011589;28;20880;-41
2020/12/06 12:29:44;;;;;;;26.70;15.00;;;10.70;62.20;;;;;;5011463;28;20653;-41
2020/12/06 12:32:09;;;;;;;25.23;14.97;;;10.60;62.00;;;;;;5009550;28;20240;-41